createdAt,value
2022-11-29T04:33:06.791Z,6.53
2022-11-29T04:48:31.903Z,6.47
2022-11-29T05:03:46.866Z,6.07
2022-11-29T05:19:21.138Z,8.50
2022-11-29T05:49:48.004Z,12.73
2022-11-29T06:05:06.578Z,7.50
2022-11-29T06:20:34.316Z,13.37
2022-11-29T06:35:45.859Z,13.43
2022-11-29T06:51:01.430Z,10.83
2022-11-29T07:06:17.588Z,20.07
2022-11-29T07:21:31.591Z,21.23
2022-11-29T07:36:46.618Z,20.30
2022-11-29T07:51:51.113Z,27.87
2022-11-29T08:06:55.510Z,24.43
2022-11-29T08:21:59.866Z,18.13
2022-11-29T08:37:04.361Z,23.80
2022-11-29T08:52:26.186Z,33.17
2022-11-29T09:07:30.643Z,28.10
2022-11-29T09:22:35.068Z,38.43
2022-11-29T09:37:43.334Z,38.83
2022-11-29T09:52:53.860Z,27.40
2022-11-29T10:08:02.981Z,29.97
2022-11-29T10:23:17.098Z,22.73
2022-11-29T10:38:36.798Z,25.17
2022-11-29T10:53:41.498Z,18.70
2022-11-29T11:08:48.896Z,18.50
2022-11-29T11:23:59.004Z,25.37
2022-11-29T11:39:12.191Z,21.40
2022-11-29T11:54:17.402Z,34.23
2022-11-29T12:09:35.959Z,21.33
2022-11-29T12:24:45.502Z,22.23
2022-11-29T12:39:58.084Z,25.50
2022-11-29T12:55:16.745Z,37.23
2022-11-29T13:10:35.554Z,26.23
2022-11-29T13:25:43.101Z,17.17
2022-11-29T13:40:55.424Z,9.93
2022-11-29T13:56:01.821Z,8.47
2022-11-29T14:11:09.102Z,12.33
2022-11-29T14:26:30.517Z,12.00
2022-11-29T14:41:50.485Z,14.63
2022-11-29T14:56:54.897Z,8.30
2022-11-29T15:12:04.434Z,10.57
2022-11-29T15:27:14.269Z,15.33
2022-11-29T15:42:18.754Z,22.53
2022-11-29T15:57:27.289Z,25.33
2022-11-29T16:12:31.727Z,22.27
2022-11-29T16:27:37.228Z,14.80
2022-11-29T16:42:44.188Z,15.50
2022-11-29T16:57:49.700Z,16.03
2022-11-29T17:12:54.102Z,19.57
2022-11-29T17:27:58.431Z,35.63
2022-11-29T17:43:02.845Z,20.33
2022-11-29T17:58:07.214Z,20.53
2022-11-29T18:13:11.646Z,23.10
2022-11-29T18:28:16.103Z,29.03
2022-11-29T18:43:20.453Z,28.67
2022-11-29T18:58:24.869Z,50.20
2022-11-29T19:13:29.223Z,51.10
2022-11-29T19:28:35.859Z,29.70
2022-11-29T19:43:40.649Z,47.17
2022-11-29T19:58:45.499Z,69.37
2022-11-29T20:13:55.783Z,53.43
2022-11-29T20:29:01.740Z,61.07
2022-11-29T20:44:06.602Z,49.70
2022-11-29T20:59:11.057Z,43.13
2022-11-29T21:14:16.333Z,38.70
